Time;durP1;ratioP1;P1;durP2;ratioP2;P2;SDS_P1;SDS_P2;PMS_P1;PMS_P2;Temp;Humidity;BMP_temperature;BMP_pressure;BME280_temperature;BME280_humidity;BME280_pressure;Samples;Min_cycle;Max_cycle;Signal;HPM_P1;HPM_P2
2022/07/13 00:01:10;;;;;;;;;;;;;;;25.59;86.27;100132.91;6243177;23;19918;-79
2022/07/13 00:03:36;;;;;;;;;;;;;;;25.62;86.34;100132.44;6244581;23;19911;-81
2022/07/13 00:06:01;;;;;;;;;;;;;;;25.58;87.26;100139.38;6244474;23;19914;-81
2022/07/13 00:08:27;;;;;;;;;;;;;;;25.57;86.71;100140.41;6244719;23;19911;-80
2022/07/13 00:10:52;;;;;;;;;;;;;;;25.53;86.78;100144.59;6245095;23;19918;-80
2022/07/13 00:13:18;;;;;;;;;;;;;;;25.52;86.95;100150.22;6244521;23;19916;-81
2022/07/13 00:15:43;;;;;;;;;;;;;;;25.54;87.14;100145.44;6219365;23;19911;-80
2022/07/13 00:18:08;;;;;;;;;;;;;;;25.54;86.46;100148.97;6246181;23;19912;-81
2022/07/13 00:20:34;;;;;;;;;;;;;;;25.51;87.01;100153.97;6195052;23;19919;-81
2022/07/13 00:22:59;;;;;;;;;;;;;;;25.40;86.63;100154.72;6249262;23;19911;-80
2022/07/13 00:25:25;;;;;;;;;;;;;;;25.37;87.00;100150.63;6258686;23;20005;-80
2022/07/13 00:27:50;;;;;;;;;;;;;;;25.36;88.59;100148.97;6259905;23;19907;-79
2022/07/13 00:30:16;;;;;;;;;;;;;;;25.34;87.90;100144.81;6263972;23;19915;-83
2022/07/13 00:32:41;;;;;;;;;;;;;;;25.35;87.52;100147.31;6264243;23;19911;-84
2022/07/13 00:35:08;;;;;;;;;;;;;;;25.37;88.21;100147.91;6233505;23;19911;-79
2022/07/13 00:37:33;;;;;;;;;;;;;;;25.38;88.54;100152.28;6251708;23;19963;-81
2022/07/13 00:39:59;;;;;;;;;;;;;;;25.40;88.27;100154.72;6255667;23;19911;-80
2022/07/13 00:42:24;;;;;;;;;;;;;;;25.39;88.31;100153.91;6257058;23;19982;-81
2022/07/13 00:44:50;;;;;;;;;;;;;;;25.36;87.97;100159.75;6249867;23;19919;-80
2022/07/13 00:47:16;;;;;;;;;;;;;;;25.26;88.46;100164.88;6247390;23;20325;-80
2022/07/13 00:49:41;;;;;;;;;;;;;;;25.11;89.19;100161.66;6258626;23;19927;-80
2022/07/13 00:52:07;;;;;;;;;;;;;;;25.08;89.85;100157.56;6255181;23;19911;-82
2022/07/13 00:54:33;;;;;;;;;;;;;;;25.05;89.90;100173.38;6235295;23;19919;-82
2022/07/13 00:56:59;;;;;;;;;;;;;;;24.95;90.08;100168.47;6259048;23;19907;-82
2022/07/13 00:59:25;;;;;;;;;;;;;;;24.91;90.95;100179.94;6253729;23;19911;-82
2022/07/13 01:01:50;;;;;;;;;;;;;;;24.87;90.99;100177.63;6253099;23;19911;-82
2022/07/13 01:04:16;;;;;;;;;;;;;;;24.91;91.22;100177.25;6248058;23;20014;-79
2022/07/13 01:06:41;;;;;;;;;;;;;;;24.93;90.90;100175.97;6245767;23;20291;-80
2022/07/13 01:09:07;;;;;;;;;;;;;;;24.92;91.58;100179.69;6245212;23;19919;-79
2022/07/13 01:11:32;;;;;;;;;;;;;;;24.91;91.63;100179.94;6245668;23;19918;-80
2022/07/13 01:13:59;;;;;;;;;;;;;;;24.87;91.30;100182.22;6245737;23;19934;-80
2022/07/13 01:16:24;;;;;;;;;;;;;;;24.87;90.96;100183.03;6218731;23;19911;-78
2022/07/13 01:18:51;;;;;;;;;;;;;;;24.90;90.92;100184.50;6244883;23;19911;-80
2022/07/13 01:21:16;;;;;;;;;;;;;;;24.88;90.54;100179.34;6244370;23;19919;-79
2022/07/13 01:23:42;;;;;;;;;;;;;;;24.91;90.54;100188.03;6244802;23;19918;-79
2022/07/13 01:26:10;;;;;;;;;;;;;;;24.90;90.66;100184.50;6244148;23;19987;-80
2022/07/13 01:28:35;;;;;;;;;;;;;;;24.93;90.63;100192.16;6245366;23;19912;-81
2022/07/13 01:31:01;;;;;;;;;;;;;;;24.93;90.59;100183.22;6244040;23;19918;-80
2022/07/13 01:33:26;;;;;;;;;;;;;;;24.96;90.57;100185.50;6244053;23;19911;-78
2022/07/13 01:35:52;;;;;;;;;;;;;;;24.99;90.65;100174.25;6243957;23;20398;-78
2022/07/13 01:38:17;;;;;;;;;;;;;;;24.98;90.66;100184.22;6243910;23;19916;-79
2022/07/13 01:40:43;;;;;;;;;;;;;;;25.01;90.92;100196.47;6216834;23;19965;-78
2022/07/13 01:43:09;;;;;;;;;;;;;;;25.01;89.67;100177.56;6244208;23;19904;-80
2022/07/13 01:45:37;;;;;;;;;;;;;;;25.01;90.20;100196.47;6244563;23;20243;-77
2022/07/13 01:48:03;;;;;;;;;;;;;;;25.01;89.82;100180.25;6217171;23;19931;-80
2022/07/13 01:50:29;;;;;;;;;;;;;;;25.04;91.31;100193.31;6244410;23;19911;-77
2022/07/13 01:52:54;;;;;;;;;;;;;;;25.06;90.42;100199.31;6217458;23;19949;-77
2022/07/13 01:55:20;;;;;;;;;;;;;;;25.09;89.99;100191.63;6243650;23;19947;-78
2022/07/13 01:57:46;;;;;;;;;;;;;;;25.11;89.31;100194.06;6217167;23;19915;-78
2022/07/13 02:00:15;;;;;;;;;;;;;;;25.12;89.60;100195.75;6243779;23;19911;-80
2022/07/13 02:02:41;;;;;;;;;;;;;;;25.13;89.72;100192.00;6217875;23;19908;-78
2022/07/13 02:05:11;;;;;;;;;;;;;;;25.14;90.03;100199.06;6217102;23;19911;-79
2022/07/13 02:07:39;;;;;;;;;;;;;;;25.15;89.80;100206.13;6195676;23;19907;-81
2022/07/13 02:10:05;;;;;;;;;;;;;;;25.16;89.28;100213.16;6223847;23;19912;-82
2022/07/13 02:12:31;;;;;;;;;;;;;;;25.16;89.54;100202.34;6223165;23;19912;-83
2022/07/13 02:15:00;;;;;;;;;;;;;;;25.14;90.62;100207.16;6212718;23;19908;-84
2022/07/13 02:17:28;;;;;;;;;;;;;;;25.13;90.63;100208.19;6230810;23;19911;-81
2022/07/13 02:19:54;;;;;;;;;;;;;;;25.11;90.19;100212.97;6254055;23;19930;-82
2022/07/13 02:22:20;;;;;;;;;;;;;;;25.08;90.15;100210.75;6258880;23;19911;-81
2022/07/13 02:24:48;;;;;;;;;;;;;;;25.03;90.83;100214.09;6250243;23;20355;-80
2022/07/13 02:27:14;;;;;;;;;;;;;;;25.01;90.86;100221.59;6250034;23;19958;-80
2022/07/13 02:29:39;;;;;;;;;;;;;;;25.00;91.82;100224.50;6252894;23;20002;-81
2022/07/13 02:32:06;;;;;;;;;;;;;;;24.95;91.57;100221.66;6252151;23;20316;-79
2022/07/13 02:34:31;;;;;;;;;;;;;;;24.96;92.33;100217.91;6225007;23;19942;-81
2022/07/13 02:36:58;;;;;;;;;;;;;;;24.94;93.17;100215.41;6224941;23;20336;-80
2022/07/13 02:39:24;;;;;;;;;;;;;;;24.94;93.36;100219.97;6222480;23;19916;-81
2022/07/13 02:41:49;;;;;;;;;;;;;;;24.90;93.56;100218.78;6199347;23;19907;-83
2022/07/13 02:44:16;;;;;;;;;;;;;;;24.86;94.05;100219.16;6200899;23;19922;-81
2022/07/13 02:46:42;;;;;;;;;;;;;;;24.85;95.17;100220.25;6199246;23;19911;-80
2022/07/13 02:49:12;;;;;;;;;;;;;;;24.86;94.95;100223.75;6226226;23;19918;-83
2022/07/13 02:51:39;;;;;;;;;;;;;;;24.85;95.23;100222.94;6211434;23;19911;-84
2022/07/13 02:54:05;;;;;;;;;;;;;;;24.85;95.42;100222.94;6238050;23;19911;-85
2022/07/13 02:56:32;;;;;;;;;;;;;;;24.84;95.72;100221.28;6260983;23;19912;-84
2022/07/13 02:58:58;;;;;;;;;;;;;;;24.81;96.68;100227.09;6231540;23;20013;-84
2022/07/13 03:01:25;;;;;;;;;;;;;;;24.80;96.17;100228.16;6255319;23;19934;-83
2022/07/13 03:03:51;;;;;;;;;;;;;;;24.76;96.55;100229.63;6200608;23;20376;-82
2022/07/13 03:06:17;;;;;;;;;;;;;;;24.75;96.39;100227.16;6224428;23;19912;-79
2022/07/13 03:08:43;;;;;;;;;;;;;;;24.75;96.34;100227.16;6228510;23;20040;-80
2022/07/13 03:11:09;;;;;;;;;;;;;;;24.73;96.59;100230.09;6225061;23;19931;-82
2022/07/13 03:13:35;;;;;;;;;;;;;;;24.72;96.92;100228.44;6255486;23;19982;-82
2022/07/13 03:16:00;;;;;;;;;;;;;;;24.71;96.65;100234.88;6229170;23;19955;-82
2022/07/13 03:18:27;;;;;;;;;;;;;;;24.65;97.45;100233.03;6230051;23;19919;-81
2022/07/13 03:20:52;;;;;;;;;;;;;;;24.63;97.37;100229.72;6230418;23;19911;-81
2022/07/13 03:23:17;;;;;;;;;;;;;;;24.60;97.96;100235.56;6258268;23;19908;-81
2022/07/13 03:25:44;;;;;;;;;;;;;;;24.56;97.26;100239.75;6206454;23;19911;-81
2022/07/13 03:28:10;;;;;;;;;;;;;;;24.57;97.21;100233.28;6223874;23;20209;-81
2022/07/13 03:30:36;;;;;;;;;;;;;;;24.52;97.48;100243.91;6244008;23;19919;-81
2022/07/13 03:33:02;;;;;;;;;;;;;;;24.54;97.83;100241.00;6245154;23;20398;-82
2022/07/13 03:35:28;;;;;;;;;;;;;;;24.53;98.29;100239.34;6241331;23;19907;-80
2022/07/13 03:37:54;;;;;;;;;;;;;;;24.53;97.88;100239.34;6245008;23;20324;-81
2022/07/13 03:40:24;;;;;;;;;;;;;;;24.46;97.81;100244.78;6216591;23;19957;-80
2022/07/13 03:42:50;;;;;;;;;;;;;;;24.43;98.21;100256.00;6217927;23;19989;-81
2022/07/13 03:45:15;;;;;;;;;;;;;;;24.38;98.47;100258.53;6244223;23;19946;-81
2022/07/13 03:47:41;;;;;;;;;;;;;;;24.30;97.16;100253.38;6244778;23;19911;-81
2022/07/13 03:50:08;;;;;;;;;;;;;;;24.26;97.16;100260.25;6217709;23;20343;-81
2022/07/13 03:52:34;;;;;;;;;;;;;;;24.19;97.06;100260.28;6218676;23;19915;-81
2022/07/13 03:55:00;;;;;;;;;;;;;;;24.14;96.96;100261.94;6243779;23;19910;-80
2022/07/13 03:57:26;;;;;;;;;;;;;;;24.12;97.24;100258.59;6244790;23;19962;-80
2022/07/13 03:59:52;;;;;;;;;;;;;;;24.10;97.78;100261.50;6245113;23;19903;-81
2022/07/13 04:02:18;;;;;;;;;;;;;;;24.08;97.75;100269.84;6218009;23;19989;-82
2022/07/13 04:04:44;;;;;;;;;;;;;;;24.12;98.10;100269.38;6218505;23;19919;-81
2022/07/13 04:07:09;;;;;;;;;;;;;;;24.08;97.65;100275.22;6244788;23;19954;-81
2022/07/13 04:09:35;;;;;;;;;;;;;;;24.04;97.27;100278.53;6217698;23;19911;-81
2022/07/13 04:12:00;;;;;;;;;;;;;;;24.00;97.81;100280.00;6217117;23;19915;-81
2022/07/13 04:14:26;;;;;;;;;;;;;;;23.98;98.46;100288.31;6217991;23;19911;-82
2022/07/13 04:16:53;;;;;;;;;;;;;;;23.97;99.26;100288.53;6193069;23;19934;-83
2022/07/13 04:19:20;;;;;;;;;;;;;;;23.94;99.81;100283.56;6245186;23;20376;-81
2022/07/13 04:21:45;;;;;;;;;;;;;;;23.94;100.00;100289.78;6217926;23;19947;-81
2022/07/13 04:24:11;;;;;;;;;;;;;;;23.89;99.54;100296.84;6243777;23;20301;-81
2022/07/13 04:26:37;;;;;;;;;;;;;;;23.88;99.71;100301.41;6217666;23;19918;-79
2022/07/13 04:29:02;;;;;;;;;;;;;;;23.84;100.00;100305.56;6244955;23;19911;-83
2022/07/13 04:31:28;;;;;;;;;;;;;;;23.79;100.00;100304.53;6219043;23;19986;-81
2022/07/13 04:33:54;;;;;;;;;;;;;;;23.77;100.00;100310.13;6218718;23;20069;-80
2022/07/13 04:36:20;;;;;;;;;;;;;;;23.67;100.00;100317.84;6218447;23;20221;-81
2022/07/13 04:38:47;;;;;;;;;;;;;;;23.60;100.00;100319.69;6218034;23;20313;-81
2022/07/13 04:41:13;;;;;;;;;;;;;;;23.65;100.00;100319.91;6244180;23;20245;-80
2022/07/13 04:43:39;;;;;;;;;;;;;;;23.66;100.00;100324.25;6222176;23;20336;-81
2022/07/13 04:46:11;;;;;;;;;;;;;;;23.63;99.70;100328.19;6242237;23;20240;-81
2022/07/13 04:48:37;;;;;;;;;;;;;;;23.64;99.82;100331.69;6244589;23;19994;-79
2022/07/13 04:51:02;;;;;;;;;;;;;;;23.66;100.00;100324.25;6244180;23;19954;-79
2022/07/13 04:53:28;;;;;;;;;;;;;;;23.61;100.00;100332.13;6218145;23;19915;-78
2022/07/13 04:55:55;;;;;;;;;;;;;;;23.67;100.00;100331.31;6246199;23;19911;-85
2022/07/13 04:58:21;;;;;;;;;;;;;;;23.66;99.13;100329.63;6217678;23;19911;-78
2022/07/13 05:00:46;;;;;;;;;;;;;;;23.67;98.85;100331.31;6219944;23;19912;-82
2022/07/13 05:03:12;;;;;;;;;;;;;;;23.69;97.98;100334.59;6246667;23;19942;-79
2022/07/13 05:05:37;;;;;;;;;;;;;;;23.68;97.91;100322.97;6216487;23;19915;-79
2022/07/13 05:08:03;;;;;;;;;;;;;;;23.75;97.37;100328.38;6216409;23;20244;-81
2022/07/13 05:10:29;;;;;;;;;;;;;;;23.77;97.29;100323.59;6216315;23;19911;-77
2022/07/13 05:12:55;;;;;;;;;;;;;;;23.83;96.94;100330.03;6217181;23;19908;-84
2022/07/13 05:15:21;;;;;;;;;;;;;;;23.84;96.00;100332.53;6244471;23;19982;-85
2022/07/13 05:17:46;;;;;;;;;;;;;;;23.86;95.70;100341.19;6217246;23;19923;-77
2022/07/13 05:20:12;;;;;;;;;;;;;;;23.96;96.09;100338.94;6242552;23;19916;-78
2022/07/13 05:22:43;;;;;;;;;;;;;;;23.99;94.97;100346.56;6216942;23;19911;-78
2022/07/13 05:25:09;;;;;;;;;;;;;;;24.04;95.13;100349.47;6250416;23;19918;-78
2022/07/13 05:27:34;;;;;;;;;;;;;;;24.09;94.19;100352.34;6220418;23;19918;-77
2022/07/13 05:29:59;;;;;;;;;;;;;;;24.16;93.68;100349.63;6243670;23;20225;-78
2022/07/13 05:32:25;;;;;;;;;;;;;;;24.25;93.52;100355.69;6216933;23;19911;-79
2022/07/13 05:34:52;;;;;;;;;;;;;;;24.35;92.15;100358.75;6243330;23;19950;-78
2022/07/13 05:37:18;;;;;;;;;;;;;;;24.43;91.12;100358.53;6243504;23;19919;-80
2022/07/13 05:39:44;;;;;;;;;;;;;;;24.44;89.68;100357.50;6216649;23;20000;-78
2022/07/13 05:42:10;;;;;;;;;;;;;;;24.42;89.14;100363.09;6216278;23;20320;-78
2022/07/13 05:44:36;;;;;;;;;;;;;;;24.44;89.22;100366.41;6216870;23;19943;-80
2022/07/13 05:47:02;;;;;;;;;;;;;;;24.42;89.23;100373.88;6242151;23;19922;-82
2022/07/13 05:49:27;;;;;;;;;;;;;;;24.41;88.86;100379.47;6248001;23;19911;-81
2022/07/13 05:51:53;;;;;;;;;;;;;;;24.33;88.43;100380.53;6216678;23;19942;-79
2022/07/13 05:54:19;;;;;;;;;;;;;;;24.17;88.79;100380.13;6216210;23;19919;-81
2022/07/13 05:56:45;;;;;;;;;;;;;;;24.23;89.90;100382.03;6216464;23;19911;-80
2022/07/13 05:59:10;;;;;;;;;;;;;;;24.31;89.21;100379.09;6243003;23;20236;-77
2022/07/13 06:01:35;;;;;;;;;;;;;;;24.42;88.49;100392.75;6242962;23;19911;-79
2022/07/13 06:04:01;;;;;;;;;;;;;;;24.43;88.31;100391.72;6243276;23;19915;-80
2022/07/13 06:06:26;;;;;;;;;;;;;;;24.23;88.91;100390.94;6243398;23;19911;-85
2022/07/13 06:08:52;;;;;;;;;;;;;;;24.17;89.16;100396.31;6243349;23;19907;-83
2022/07/13 06:11:17;;;;;;;;;;;;;;;24.13;89.09;100401.31;6216796;23;19918;-79
2022/07/13 06:13:43;;;;;;;;;;;;;;;24.19;89.43;100402.38;6242827;23;19911;-79
2022/07/13 06:16:08;;;;;;;;;;;;;;;24.30;88.93;100402.56;6242665;23;19917;-80
2022/07/13 06:18:34;;;;;;;;;;;;;;;24.35;88.20;100399.22;6243335;23;19923;-81
2022/07/13 06:20:59;;;;;;;;;;;;;;;24.41;88.09;100398.38;6242993;23;19915;-79
2022/07/13 06:23:24;;;;;;;;;;;;;;;24.49;88.84;100406.25;6242866;23;19944;-81
2022/07/13 06:25:50;;;;;;;;;;;;;;;24.58;87.71;100402.25;6242929;23;19911;-80
2022/07/13 06:28:15;;;;;;;;;;;;;;;24.66;87.56;100406.59;6242543;23;19908;-80
2022/07/13 06:30:41;;;;;;;;;;;;;;;24.74;87.83;100409.84;6242591;23;19950;-80
2022/07/13 06:33:07;;;;;;;;;;;;;;;24.82;86.97;100412.31;6242611;23;19911;-80
2022/07/13 06:35:32;;;;;;;;;;;;;;;24.91;86.20;100414.81;6242860;23;19912;-81
2022/07/13 06:37:58;;;;;;;;;;;;;;;24.95;85.86;100411.47;6242989;23;19911;-85
2022/07/13 06:40:24;;;;;;;;;;;;;;;24.87;85.61;100415.19;6215685;23;20356;-83
2022/07/13 06:42:49;;;;;;;;;;;;;;;24.83;86.39;100419.38;6242589;23;19942;-81
2022/07/13 06:45:15;;;;;;;;;;;;;;;24.91;86.82;100425.63;6215611;23;19923;-79
2022/07/13 06:47:40;;;;;;;;;;;;;;;24.80;87.24;100427.91;6244077;23;19918;-81
2022/07/13 06:50:07;;;;;;;;;;;;;;;24.81;87.28;100429.56;6242110;23;19907;-77
2022/07/13 06:52:33;;;;;;;;;;;;;;;24.94;87.05;100425.19;6215713;23;19938;-82
2022/07/13 06:54:58;;;;;;;;;;;;;;;24.93;86.90;100428.91;6242019;23;19916;-78
2022/07/13 06:57:24;;;;;;;;;;;;;;;24.96;86.51;100428.50;6242098;23;19958;-78
2022/07/13 06:59:49;;;;;;;;;;;;;;;25.08;86.01;100421.38;6242559;23;19965;-78
2022/07/13 07:02:14;;;;;;;;;;;;;;;25.27;84.71;100425.84;6215414;23;19919;-78
2022/07/13 07:04:40;;;;;;;;;;;;;;;25.41;83.87;100427.41;6242228;23;19908;-79
2022/07/13 07:07:05;;;;;;;;;;;;;;;25.54;83.29;100421.91;6242208;23;19958;-78
2022/07/13 07:09:31;;;;;;;;;;;;;;;25.60;83.26;100421.06;6241988;23;19911;-79
2022/07/13 07:11:56;;;;;;;;;;;;;;;25.72;82.84;100417.66;6242477;23;19911;-79
2022/07/13 07:14:22;;;;;;;;;;;;;;;25.67;82.90;100421.84;6247563;23;19916;-78
2022/07/13 07:16:47;;;;;;;;;;;;;;;25.73;83.24;100422.00;6219228;23;19987;-79
2022/07/13 07:19:13;;;;;;;;;;;;;;;25.78;82.41;100423.00;6245190;23;19938;-78
2022/07/13 07:21:40;;;;;;;;;;;;;;;25.85;82.17;100417.53;6234083;23;19934;-78
2022/07/13 07:24:05;;;;;;;;;;;;;;;25.92;81.78;100419.13;6255185;23;20260;-78
2022/07/13 07:26:31;;;;;;;;;;;;;;;25.97;81.86;100421.19;6252218;23;19911;-77
2022/07/13 07:28:56;;;;;;;;;;;;;;;26.03;81.39;100425.69;6252040;23;19915;-78
2022/07/13 07:31:22;;;;;;;;;;;;;;;26.07;82.12;100418.78;6256994;23;19918;-79
2022/07/13 07:33:48;;;;;;;;;;;;;;;26.09;82.23;100424.81;6255406;23;19911;-76
2022/07/13 07:36:13;;;;;;;;;;;;;;;26.10;82.56;100413.75;6257813;23;19915;-79
2022/07/13 07:38:39;;;;;;;;;;;;;;;26.14;83.00;100424.97;6254626;23;19934;-78
2022/07/13 07:41:04;;;;;;;;;;;;;;;26.15;82.84;100418.50;6245606;23;19922;-78
2022/07/13 07:43:29;;;;;;;;;;;;;;;26.19;82.73;100419.72;6247117;23;19987;-77
2022/07/13 07:45:55;;;;;;;;;;;;;;;26.16;82.82;100420.13;6264824;23;19911;-78
2022/07/13 07:48:20;;;;;;;;;;;;;;;26.17;82.79;100431.78;6256098;23;20372;-77
2022/07/13 07:50:46;;;;;;;;;;;;;;;26.15;82.57;100434.75;6246912;23;20324;-78
2022/07/13 07:53:11;;;;;;;;;;;;;;;26.10;82.64;100437.25;6219393;23;20259;-78
2022/07/13 07:55:37;;;;;;;;;;;;;;;26.10;83.27;100431.84;6245707;23;19912;-78
2022/07/13 07:58:02;;;;;;;;;;;;;;;26.20;82.60;100426.78;6245391;23;19912;-78
2022/07/13 08:00:28;;;;;;;;;;;;;;;26.31;82.82;100430.66;6245648;23;19983;-78
2022/07/13 08:02:57;;;;;;;;;;;;;;;26.44;81.60;100428.63;6245371;23;19921;-78
2022/07/13 08:05:22;;;;;;;;;;;;;;;26.54;81.67;100417.28;6245539;23;19918;-76
2022/07/13 08:07:48;;;;;;;;;;;;;;;26.64;81.85;100425.69;6245293;23;19939;-75
2022/07/13 08:10:14;;;;;;;;;;;;;;;26.74;81.36;100417.84;6243184;23;20022;-79
2022/07/13 08:12:40;;;;;;;;;;;;;;;26.75;80.15;100426.81;6245406;23;19943;-78
2022/07/13 08:15:07;;;;;;;;;;;;;;;26.76;79.60;100420.34;6245254;23;20335;-80
2022/07/13 08:17:33;;;;;;;;;;;;;;;26.82;79.68;100424.84;6245864;23;19965;-80
2022/07/13 08:19:59;;;;;;;;;;;;;;;26.84;78.67;100420.03;6244750;23;19911;-78
2022/07/13 08:22:24;;;;;;;;;;;;;;;26.85;77.91;100416.28;6245159;23;19907;-81
2022/07/13 08:24:50;;;;;;;;;;;;;;;26.90;78.17;100424.56;6244492;23;20359;-81
2022/07/13 08:27:15;;;;;;;;;;;;;;;26.91;78.12;100423.53;6243605;23;19903;-80
2022/07/13 08:29:41;;;;;;;;;;;;;;;27.00;78.53;100411.31;6216957;23;19911;-80
2022/07/13 08:32:06;;;;;;;;;;;;;;;27.12;78.45;100425.72;6244516;23;19918;-82
2022/07/13 08:40:06;;;;;;;;;;;;;;;27.06;76.74;100415.81;6243022;23;20041;-80
2022/07/13 08:42:32;;;;;;;;;;;;;;;27.07;77.74;100412.03;6243397;23;19912;-80
2022/07/13 08:44:57;;;;;;;;;;;;;;;27.12;76.11;100412.19;6243885;23;19919;-80
2022/07/13 08:47:24;;;;;;;;;;;;;;;27.10;74.63;100417.00;6244392;23;20006;-80
2022/07/13 08:49:52;;;;;;;;;;;;;;;27.09;74.51;100409.94;6243598;23;19951;-80
2022/07/13 08:52:17;;;;;;;;;;;;;;;27.08;76.35;100408.28;6243492;23;19915;-79
2022/07/13 08:54:43;;;;;;;;;;;;;;;27.12;76.47;100409.47;6244384;23;20371;-80
2022/07/13 08:57:08;;;;;;;;;;;;;;;27.20;76.15;100401.03;6242914;23;19908;-79
2022/07/13 08:59:34;;;;;;;;;;;;;;;27.30;74.69;100401.28;6243812;23;19943;-80
2022/07/13 09:02:00;;;;;;;;;;;;;;;27.39;74.90;100403.69;6243931;23;19911;-81
2022/07/13 09:04:26;;;;;;;;;;;;;;;27.42;74.50;100392.34;6243606;23;19918;-80
2022/07/13 09:06:51;;;;;;;;;;;;;;;27.44;75.69;100401.09;6242617;23;19990;-79
2022/07/13 09:09:33;;;;;;;;;;;;;;;27.45;75.85;100402.75;6243717;23;19911;-80
2022/07/13 09:12:16;;;;;;;;;;;;;;;27.46;75.83;100402.50;6244443;23;19957;-80
2022/07/13 09:14:43;;;;;;;;;;;;;;;27.52;75.23;100403.47;6245613;23;19916;-79
2022/07/13 09:17:18;;;;;;;;;;;;;;;27.58;74.10;100399.84;6243310;23;20291;-77
2022/07/13 09:19:44;;;;;;;;;;;;;;;27.60;74.21;100405.84;6245798;23;19919;-78
2022/07/13 09:22:12;;;;;;;;;;;;;;;27.68;73.98;100403.66;6245965;23;19965;-80
2022/07/13 09:24:43;;;;;;;;;;;;;;;27.66;74.92;100400.34;6246083;23;19914;-82
2022/07/13 09:27:09;;;;;;;;;;;;;;;27.56;75.48;100394.66;6247305;23;19951;-79
2022/07/13 09:29:36;;;;;;;;;;;;;;;27.57;75.19;100395.47;6246376;23;19918;-76
2022/07/13 09:32:04;;;;;;;;;;;;;;;27.61;74.86;100402.09;6244339;23;19911;-79
2022/07/13 09:34:46;;;;;;;;;;;;;;;27.69;74.66;100404.44;6245224;23;19911;-78
2022/07/13 09:37:12;;;;;;;;;;;;;;;27.80;73.88;100411.78;6244466;23;20295;-75
2022/07/13 09:39:57;;;;;;;;;;;;;;;27.89;73.94;100402.22;6246695;23;19908;-77
2022/07/13 09:42:27;;;;;;;;;;;;;;;27.92;72.92;100404.47;6248482;23;20324;-77
2022/07/13 09:47:48;;;;;;;;;;;;;;;27.92;72.99;100409.88;6249417;23;19911;-77
2022/07/13 09:50:15;;;;;;;;;;;;;;;27.97;72.00;100401.91;6249873;23;19911;-80
2022/07/13 09:52:41;;;;;;;;;;;;;;;28.04;71.50;100408.00;6249606;23;19921;-83
2022/07/13 09:55:10;;;;;;;;;;;;;;;28.13;70.85;100399.53;6254249;23;19939;-80
2022/07/13 09:57:39;;;;;;;;;;;;;;;28.14;70.99;100401.22;6253653;23;19965;-82
2022/07/13 10:00:07;;;;;;;;;;;;;;;28.14;70.94;100395.78;6255906;23;19911;-80
2022/07/13 10:02:32;;;;;;;;;;;;;;;28.26;70.74;100402.84;6252849;23;19911;-79
2022/07/13 10:04:58;;;;;;;;;;;;;;;28.30;69.17;100395.03;6247150;23;20343;-78
2022/07/13 10:07:24;;;;;;;;;;;;;;;28.34;68.01;100401.63;6250930;23;19915;-78
2022/07/13 10:09:50;;;;;;;;;;;;;;;28.39;68.44;100404.50;6250837;23;19912;-78
2022/07/13 10:12:15;;;;;;;;;;;;;;;28.45;68.34;100411.69;6253999;23;19969;-82
2022/07/13 10:14:41;;;;;;;;;;;;;;;28.52;67.37;100393.34;6224805;23;20629;-80
2022/07/13 10:17:06;;;;;;;;;;;;;;;28.57;68.09;100401.59;6252093;23;20356;-81
2022/07/13 10:19:33;;;;;;;;;;;;;;;28.68;68.10;100403.47;6249372;23;19907;-80
2022/07/13 10:22:09;;;;;;;;;;;;;;;28.81;66.60;100396.94;6250511;23;20288;-78
2022/07/13 10:24:35;;;;;;;;;;;;;;;28.81;66.14;100397.78;6249377;23;20245;-78
2022/07/13 10:27:22;;;;;;;;;;;;;;;28.79;67.52;100399.94;6250086;23;19908;-79
2022/07/13 10:30:11;;;;;;;;;;;;;;;28.76;66.29;100394.97;6248269;23;19919;-79
2022/07/13 10:32:40;;;;;;;;;;;;;;;28.79;66.24;100391.78;6235143;23;20245;-78
2022/07/13 10:35:07;;;;;;;;;;;;;;;28.82;66.76;100391.28;6243837;23;19922;-79
2022/07/13 10:37:51;;;;;;;;;;;;;;;28.79;66.60;100397.22;6243624;23;19918;-78
2022/07/13 10:40:18;;;;;;;;;;;;;;;28.73;67.32;100387.31;6243051;23;19916;-80
2022/07/13 10:42:52;;;;;;;;;;;;;;;28.76;67.37;100389.53;6243514;23;19916;-80
2022/07/13 10:45:44;;;;;;;;;;;;;;;28.80;66.91;100390.72;6243417;23;19916;-79
2022/07/13 10:48:22;;;;;;;;;;;;;;;28.84;65.70;100393.75;6240076;23;19946;-79
2022/07/13 10:50:56;;;;;;;;;;;;;;;28.82;64.80;100385.03;6216282;23;19918;-79
2022/07/13 10:53:40;;;;;;;;;;;;;;;28.85;64.59;100388.09;6242863;23;19912;-79
2022/07/13 10:56:15;;;;;;;;;;;;;;;28.87;64.28;100374.25;6242840;23;19919;-79
2022/07/13 10:58:42;;;;;;;;;;;;;;;28.81;64.70;100376.03;6242829;23;20346;-78
2022/07/13 11:01:26;;;;;;;;;;;;;;;28.82;64.39;100380.41;6242667;23;19986;-78
2022/07/13 11:03:52;;;;;;;;;;;;;;;28.88;64.87;100363.16;6242953;23;19938;-80
2022/07/13 11:06:21;;;;;;;;;;;;;;;28.89;63.66;100370.22;6243416;23;20430;-78
2022/07/13 11:09:06;;;;;;;;;;;;;;;28.96;63.35;100363.84;6243031;23;19915;-77
2022/07/13 11:11:32;;;;;;;;;;;;;;;29.07;62.88;100363.78;6242372;23;20735;-78
2022/07/13 11:13:58;;;;;;;;;;;;;;;29.23;62.28;100362.13;6241999;23;19938;-76
2022/07/13 11:16:42;;;;;;;;;;;;;;;29.31;61.15;100362.56;6243403;23;19914;-77
2022/07/13 11:19:08;;;;;;;;;;;;;;;29.36;59.56;100356.44;6242091;23;19912;-78
2022/07/13 11:21:53;;;;;;;;;;;;;;;29.36;59.50;100355.59;6244086;23;19912;-82
2022/07/13 11:27:22;;;;;;;;;;;;;;;29.40;58.59;100357.56;6182175;23;19923;-78
2022/07/13 11:29:57;;;;;;;;;;;;;;;29.39;57.25;100346.97;6228607;23;19918;-78
2022/07/13 11:32:25;;;;;;;;;;;;;;;29.34;58.57;100342.25;6243845;23;19918;-80
2022/07/13 11:34:51;;;;;;;;;;;;;;;29.30;59.11;100346.50;6242332;23;19915;-81
2022/07/13 11:37:22;;;;;;;;;;;;;;;29.30;57.88;100335.63;6240568;23;19911;-79
2022/07/13 11:39:47;;;;;;;;;;;;;;;29.39;55.85;100339.63;6240617;23;19911;-79
2022/07/13 11:42:13;;;;;;;;;;;;;;;29.39;55.67;100336.91;6240118;23;19966;-79
2022/07/13 11:44:38;;;;;;;;;;;;;;;29.43;55.50;100335.34;6240969;23;19916;-79
2022/07/13 11:47:05;;;;;;;;;;;;;;;29.42;55.76;100330.16;6241737;23;19915;-77
2022/07/13 11:49:50;;;;;;;;;;;;;;;29.45;57.19;100338.66;6241660;23;19911;-78
2022/07/13 11:52:20;;;;;;;;;;;;;;;29.51;57.42;100324.03;6241935;23;20240;-78
2022/07/13 11:54:58;;;;;;;;;;;;;;;29.51;57.21;100326.75;6241799;23;19950;-79
2022/07/13 11:57:24;;;;;;;;;;;;;;;29.50;57.14;100321.59;6242589;23;19969;-81
2022/07/13 11:59:50;;;;;;;;;;;;;;;29.65;56.19;100327.25;6243507;23;19911;-79
2022/07/13 12:02:15;;;;;;;;;;;;;;;29.73;55.92;100321.41;6243635;23;19919;-78
2022/07/13 12:04:45;;;;;;;;;;;;;;;29.81;55.70;100315.50;6216864;23;19964;-78
2022/07/13 12:07:24;;;;;;;;;;;;;;;30.02;54.13;100303.88;6216861;23;19911;-78
2022/07/13 12:09:49;;;;;;;;;;;;;;;30.16;54.03;100307.03;6245440;23;19912;-77
2022/07/13 12:12:15;;;;;;;;;;;;;;;30.30;54.03;100300.13;6257072;23;19963;-79
2022/07/13 12:14:41;;;;;;;;;;;;;;;30.57;53.30;100296.69;6247815;23;19918;-77
2022/07/13 12:17:07;;;;;;;;;;;;;;;30.73;53.25;100298.47;6243794;23;19919;-75
2022/07/13 12:19:32;;;;;;;;;;;;;;;30.79;50.80;100289.28;6241164;23;19939;-78
2022/07/13 12:21:58;;;;;;;;;;;;;;;30.88;51.72;100287.72;6241796;23;19915;-76
2022/07/13 12:24:23;;;;;;;;;;;;;;;30.98;53.20;100287.81;6243008;23;19911;-77
2022/07/13 12:26:52;;;;;;;;;;;;;;;31.11;51.45;100281.94;6243551;23;19911;-76
2022/07/13 12:29:32;;;;;;;;;;;;;;;31.32;51.67;100282.94;6243401;23;20344;-76
2022/07/13 12:31:58;;;;;;;;;;;;;;;31.64;49.52;100269.28;6243349;23;19911;-75
2022/07/13 12:34:23;;;;;;;;;;;;;;;32.02;48.70;100271.66;6243656;23;19917;-79
2022/07/13 12:36:49;;;;;;;;;;;;;;;32.18;46.51;100269.03;6243438;23;19912;-77
2022/07/13 12:39:15;;;;;;;;;;;;;;;32.27;47.51;100261.97;6243302;23;19942;-76
2022/07/13 12:41:41;;;;;;;;;;;;;;;32.37;45.65;100259.25;6243196;23;20014;-75
2022/07/13 12:44:07;;;;;;;;;;;;;;;32.42;45.84;100259.28;6243296;23;20418;-76
2022/07/13 12:46:46;;;;;;;;;;;;;;;32.26;44.12;100254.88;6243372;23;20324;-76